createdAt,value
2016-08-02T00:00:48.014Z,88.55
2016-08-02T00:01:29.664Z,88.89
2016-08-02T00:02:35.644Z,88.31
2016-08-02T00:03:30.109Z,87.79
2016-08-02T00:04:30.737Z,87.83
2016-08-02T00:06:30.464Z,87.57
2016-08-02T00:07:29.082Z,87.53
2016-08-02T00:08:29.337Z,88.02
2016-08-02T00:09:29.175Z,87.74
2016-08-02T00:10:34.441Z,88.21
2016-08-02T00:11:39.674Z,88.39
2016-08-02T00:12:36.855Z,88.62
2016-08-02T00:13:58.171Z,88.48
2016-08-02T00:15:51.512Z,88.48
2016-08-02T00:18:31.755Z,88.49
2016-08-02T00:19:36.978Z,88.28
2016-08-02T00:20:52.052Z,88.25
2016-08-02T00:21:29.486Z,88.16
2016-08-02T00:23:45.501Z,88.16
2016-08-02T00:24:48.397Z,88.70
2016-08-02T00:26:41.545Z,89.06
2016-08-02T00:28:34.032Z,89.23
2016-08-02T00:29:24.583Z,89.05
2016-08-02T00:30:46.397Z,89.26
2016-08-02T00:31:34.568Z,88.69
2016-08-02T00:32:24.668Z,88.82
2016-08-02T00:33:37.756Z,88.60
2016-08-02T00:34:22.744Z,88.89
2016-08-02T00:35:33.235Z,88.92
2016-08-02T00:36:34.488Z,88.76
2016-08-02T00:37:40.727Z,88.67
2016-08-02T00:38:30.364Z,88.96
2016-08-02T00:39:30.484Z,88.85
2016-08-02T00:40:27.940Z,89.03
2016-08-02T00:41:30.820Z,88.87
2016-08-02T00:42:28.890Z,88.89
2016-08-02T00:43:27.124Z,89.20
2016-08-02T00:44:29.134Z,89.42
2016-08-02T00:45:46.087Z,88.90
2016-08-02T00:46:25.213Z,89.04
2016-08-02T00:47:34.970Z,88.53
2016-08-02T00:48:25.584Z,88.33
2016-08-02T00:50:33.336Z,88.67
2016-08-02T00:51:35.828Z,88.83
2016-08-02T00:52:39.949Z,88.80
2016-08-02T00:53:32.056Z,88.54
2016-08-02T00:55:24.478Z,88.86
2016-08-02T00:56:34.693Z,88.84
2016-08-02T00:57:33.185Z,88.96
2016-08-02T00:58:29.680Z,89.26
2016-08-02T00:59:31.035Z,89.17
2016-08-02T01:00:29.006Z,88.99
2016-08-02T01:01:29.808Z,89.37
2016-08-02T01:02:25.871Z,89.31
2016-08-02T01:03:26.415Z,89.30
2016-08-02T01:04:30.641Z,89.51
2016-08-02T01:05:48.984Z,89.11
2016-08-02T01:07:48.719Z,89.30
2016-08-02T01:08:32.814Z,89.35
2016-08-02T01:09:30.087Z,89.23
2016-08-02T01:10:31.045Z,89.34
2016-08-02T01:11:33.282Z,89.36
2016-08-02T01:12:40.273Z,89.57
2016-08-02T01:13:24.351Z,89.36
2016-08-02T01:14:34.309Z,89.29
2016-08-02T01:15:27.806Z,89.22
2016-08-02T01:16:33.646Z,89.48
2016-08-02T01:17:49.371Z,89.43
2016-08-02T01:18:37.985Z,89.76
2016-08-02T01:19:40.683Z,90.12
2016-08-02T01:20:40.792Z,89.57
2016-08-02T01:21:39.595Z,89.70
2016-08-02T01:22:33.751Z,89.60
2016-08-02T01:23:34.107Z,89.70
2016-08-02T01:24:23.076Z,89.70
2016-08-02T01:25:26.252Z,89.05
2016-08-02T01:26:34.971Z,88.90
2016-08-02T01:27:30.677Z,89.13
2016-08-02T01:28:41.693Z,89.02
2016-08-02T01:30:28.013Z,89.12
2016-08-02T01:31:29.891Z,89.00
2016-08-02T01:34:38.167Z,89.43
2016-08-02T01:38:34.457Z,88.81
2016-08-02T01:43:46.786Z,89.28
2016-08-02T01:44:31.522Z,89.20
2016-08-02T01:45:30.291Z,89.24
2016-08-02T01:47:27.318Z,88.85
2016-08-02T01:48:59.991Z,89.04
2016-08-02T01:49:46.418Z,89.10
2016-08-02T01:51:41.229Z,89.16
2016-08-02T01:52:38.822Z,89.44
2016-08-02T01:53:47.227Z,88.89
2016-08-02T01:54:28.481Z,88.85
2016-08-02T01:57:36.321Z,89.43
2016-08-02T01:59:29.082Z,89.36
2016-08-02T02:04:30.615Z,89.35
2016-08-02T02:05:30.783Z,89.71
2016-08-02T02:07:42.141Z,89.30
2016-08-02T02:09:52.784Z,88.89
2016-08-02T02:10:42.997Z,88.68
2016-08-02T02:18:53.665Z,88.99
2016-08-02T02:20:32.988Z,89.09
2016-08-02T02:22:29.568Z,89.44
2016-08-02T02:35:30.179Z,88.74
2016-08-02T02:36:29.140Z,89.33
2016-08-02T02:41:19.471Z,88.56
2016-08-02T02:48:32.275Z,88.65
2016-08-02T02:58:26.013Z,88.73
2016-08-02T03:11:31.196Z,88.67
2016-08-02T03:12:40.999Z,88.72
2016-08-02T03:13:29.965Z,87.71
2016-08-02T03:15:29.576Z,87.92
2016-08-02T03:17:40.837Z,88.03
2016-08-02T03:19:41.494Z,88.06
2016-08-02T03:25:34.424Z,87.78
2016-08-02T03:31:24.245Z,87.36
2016-08-02T03:33:48.368Z,87.73
2016-08-02T03:36:44.361Z,88.50
2016-08-02T03:39:30.872Z,88.76
2016-08-02T03:41:26.825Z,86.98
2016-08-02T03:49:45.264Z,85.12
2016-08-02T03:50:48.464Z,86.08
2016-08-02T03:51:29.902Z,85.98
2016-08-02T03:52:33.184Z,86.73
2016-08-02T03:57:58.084Z,87.20
2016-08-02T04:00:23.780Z,87.26
2016-08-02T04:02:09.606Z,87.35
2016-08-02T04:02:37.480Z,86.88
2016-08-02T04:04:26.758Z,87.24
2016-08-02T04:05:51.341Z,87.13
2016-08-02T04:06:33.362Z,86.85
2016-08-02T04:21:40.702Z,84.64
2016-08-02T04:22:33.165Z,84.34
2016-08-02T04:23:34.055Z,84.01
2016-08-02T04:24:33.534Z,84.63
2016-08-02T04:26:24.717Z,84.80
2016-08-02T04:30:27.858Z,84.05
2016-08-02T04:31:34.845Z,84.11
2016-08-02T04:34:36.357Z,84.12
2016-08-02T04:37:31.341Z,83.50
2016-08-02T04:38:52.704Z,83.17
2016-08-02T04:39:32.834Z,83.52
2016-08-02T04:40:27.179Z,83.50
2016-08-02T04:41:24.264Z,83.16
2016-08-02T04:42:29.543Z,83.21
2016-08-02T04:43:30.635Z,83.54
2016-08-02T04:45:35.463Z,83.10
2016-08-02T04:46:25.144Z,82.98
2016-08-02T04:47:45.489Z,83.16
2016-08-02T04:48:34.762Z,82.93
2016-08-02T04:49:25.640Z,83.13
2016-08-02T04:50:31.871Z,82.88
2016-08-02T04:52:31.569Z,83.36
2016-08-02T04:53:35.034Z,82.60
2016-08-02T04:55:14.508Z,82.64
2016-08-02T04:55:39.966Z,83.24
2016-08-02T04:56:29.966Z,82.83
2016-08-02T04:58:31.267Z,82.66
2016-08-02T05:02:56.236Z,82.25
2016-08-02T05:03:29.395Z,81.94
2016-08-02T05:04:24.444Z,82.07
2016-08-02T05:05:31.034Z,82.38
2016-08-02T05:08:38.877Z,81.77
2016-08-02T05:10:26.659Z,81.93
2016-08-02T05:13:25.404Z,81.76
2016-08-02T05:14:26.142Z,81.93
2016-08-02T05:16:22.658Z,81.96
2016-08-02T05:18:10.035Z,81.53
2016-08-02T05:18:39.011Z,81.22
2016-08-02T05:20:25.628Z,81.16
2016-08-02T05:21:26.742Z,81.41
2016-08-02T05:22:25.816Z,81.72
2016-08-02T05:23:31.942Z,81.66
2016-08-02T05:24:28.920Z,81.42
2016-08-02T05:25:33.771Z,81.54
2016-08-02T05:27:32.596Z,81.74
2016-08-02T05:29:33.623Z,81.19
2016-08-02T05:31:33.143Z,81.07
2016-08-02T05:33:48.043Z,80.75
2016-08-02T05:35:25.237Z,81.12
2016-08-02T05:36:35.815Z,81.58
2016-08-02T05:38:49.957Z,80.72
2016-08-02T05:39:46.020Z,80.97
2016-08-02T05:40:28.890Z,81.17
2016-08-02T05:41:22.234Z,81.87
2016-08-02T05:42:29.728Z,81.19
2016-08-02T05:43:25.457Z,80.86
2016-08-02T05:44:32.265Z,80.20
2016-08-02T05:45:31.161Z,80.14
2016-08-02T05:46:36.964Z,80.06
2016-08-02T05:47:38.757Z,79.97
2016-08-02T05:48:27.805Z,80.00
2016-08-02T05:49:29.503Z,80.04
2016-08-02T05:50:24.505Z,79.60
2016-08-02T05:51:33.628Z,79.18
2016-08-02T05:52:31.898Z,78.75
2016-08-02T05:53:24.983Z,78.96
2016-08-02T05:54:31.375Z,78.81
2016-08-02T05:55:22.460Z,79.32
2016-08-02T05:56:24.044Z,79.01
2016-08-02T05:57:22.713Z,79.29
2016-08-02T05:58:29.027Z,78.91
2016-08-02T05:59:23.541Z,79.06
2016-08-02T06:00:39.946Z,78.71
2016-08-02T06:02:29.983Z,79.05
2016-08-02T06:03:31.000Z,78.89
2016-08-02T06:04:34.658Z,79.05
2016-08-02T06:05:27.835Z,78.63
2016-08-02T06:06:34.732Z,79.00
2016-08-02T06:07:18.323Z,78.66
2016-08-02T06:08:33.711Z,78.55
2016-08-02T06:10:36.090Z,79.03
2016-08-02T06:11:25.479Z,79.39
2016-08-02T06:12:24.633Z,78.91
2016-08-02T06:13:28.845Z,78.54
2016-08-02T06:14:23.606Z,78.83
2016-08-02T06:15:17.955Z,78.02
2016-08-02T06:16:28.081Z,78.60
2016-08-02T06:17:22.539Z,78.41
2016-08-02T06:18:29.317Z,79.02
2016-08-02T06:19:25.930Z,78.29
2016-08-02T06:20:30.457Z,77.83
2016-08-02T06:21:45.326Z,77.98
2016-08-02T06:22:39.991Z,77.94
2016-08-02T06:23:28.997Z,77.71
2016-08-02T06:24:35.401Z,77.15
2016-08-02T06:25:24.523Z,77.38
2016-08-02T06:26:36.028Z,77.66
2016-08-02T06:27:24.094Z,77.75
2016-08-02T06:28:24.212Z,77.57
2016-08-02T06:29:22.839Z,76.86
2016-08-02T06:30:32.438Z,75.99
2016-08-02T06:33:40.640Z,75.56
2016-08-02T06:34:40.090Z,76.15
2016-08-02T06:35:31.018Z,75.81
2016-08-02T06:36:30.779Z,76.01
2016-08-02T06:38:37.028Z,75.61
2016-08-02T06:40:28.026Z,75.51
2016-08-02T06:41:40.090Z,75.54
2016-08-02T06:43:31.826Z,74.80
2016-08-02T06:45:29.907Z,74.23
2016-08-02T06:46:31.272Z,74.66
2016-08-02T06:47:36.744Z,74.71
2016-08-02T06:48:24.390Z,75.15
2016-08-02T06:49:39.598Z,75.79
2016-08-02T06:50:23.948Z,75.11
2016-08-02T06:52:38.837Z,75.04
2016-08-02T06:53:28.936Z,75.42
2016-08-02T06:54:26.169Z,75.92
2016-08-02T06:55:28.310Z,75.60
2016-08-02T06:56:30.021Z,75.67
2016-08-02T06:57:24.113Z,75.26
2016-08-02T06:58:26.636Z,75.55
2016-08-02T06:59:30.669Z,75.53
2016-08-02T07:02:27.046Z,75.43
2016-08-02T07:04:46.318Z,74.91
2016-08-02T07:05:27.288Z,75.20
2016-08-02T07:08:28.538Z,75.40
2016-08-02T07:09:46.602Z,76.03
2016-08-02T07:10:24.668Z,76.13
2016-08-02T07:13:39.446Z,76.30
2016-08-02T07:14:28.469Z,76.15
2016-08-02T07:16:49.018Z,75.89
2016-08-02T07:18:37.866Z,75.45
2016-08-02T07:19:34.083Z,75.69
2016-08-02T07:21:29.202Z,75.66
2016-08-02T07:24:02.578Z,75.53
2016-08-02T07:24:31.000Z,75.12
2016-08-02T07:25:27.705Z,74.87
2016-08-02T07:26:39.964Z,75.58
2016-08-02T07:27:39.961Z,75.57
2016-08-02T07:28:32.999Z,75.87
2016-08-02T07:29:38.845Z,75.52
2016-08-02T07:30:30.053Z,74.80
2016-08-02T07:31:28.856Z,75.53
2016-08-02T07:32:25.395Z,75.00
2016-08-02T07:33:41.251Z,74.02
2016-08-02T07:34:20.804Z,74.46
2016-08-02T07:35:45.410Z,74.13
2016-08-02T07:36:39.651Z,74.57
2016-08-02T07:38:25.767Z,73.88
2016-08-02T07:40:33.648Z,72.64
2016-08-02T07:42:33.100Z,73.19
2016-08-02T07:43:44.125Z,73.50
2016-08-02T07:47:41.028Z,73.33
2016-08-02T07:48:28.184Z,71.91
2016-08-02T07:51:34.869Z,71.07
2016-08-02T07:52:31.939Z,71.77
2016-08-02T07:53:35.108Z,71.88
2016-08-02T07:55:28.005Z,71.30
2016-08-02T07:56:27.994Z,71.34
2016-08-02T07:57:46.682Z,71.06
2016-08-02T07:58:37.344Z,71.04
2016-08-02T07:59:31.405Z,71.29
2016-08-02T08:00:24.162Z,71.09
2016-08-02T08:01:46.534Z,70.78
2016-08-02T08:02:32.751Z,70.44
2016-08-02T08:05:32.216Z,70.76
2016-08-02T08:06:31.843Z,69.96
2016-08-02T08:08:50.130Z,69.37
2016-08-02T08:09:23.918Z,69.46
2016-08-02T08:10:29.712Z,68.87
2016-08-02T08:12:35.820Z,69.26
2016-08-02T08:13:24.630Z,70.12
2016-08-02T08:15:35.752Z,69.47
2016-08-02T08:19:19.308Z,68.89
2016-08-02T08:21:34.087Z,68.37
2016-08-02T08:22:34.151Z,67.33
2016-08-02T08:23:36.454Z,68.48
2016-08-02T08:24:31.411Z,67.46
2016-08-02T08:25:25.503Z,68.25
2016-08-02T08:27:32.659Z,68.86
2016-08-02T08:28:31.040Z,66.30
2016-08-02T08:29:32.848Z,66.14
2016-08-02T08:31:34.287Z,67.38
2016-08-02T08:32:24.151Z,66.83
2016-08-02T08:33:25.237Z,66.17
2016-08-02T08:35:29.817Z,65.16
2016-08-02T08:36:40.980Z,66.53
2016-08-02T08:37:24.336Z,65.87
2016-08-02T08:38:25.914Z,66.32
2016-08-02T08:39:47.846Z,63.91
2016-08-02T08:40:47.226Z,65.37
2016-08-02T08:41:46.163Z,65.74
2016-08-02T08:43:29.360Z,66.30
2016-08-02T08:45:35.773Z,64.84
2016-08-02T08:47:29.867Z,64.35
2016-08-02T08:48:31.630Z,64.25
2016-08-02T08:50:27.343Z,64.05
2016-08-02T08:53:02.942Z,63.17
2016-08-02T08:53:28.012Z,63.09
2016-08-02T08:57:35.936Z,62.33
2016-08-02T09:00:30.964Z,63.12
2016-08-02T09:02:43.417Z,61.43
2016-08-02T09:04:28.128Z,59.39
2016-08-02T09:05:32.609Z,59.83
2016-08-02T09:12:33.100Z,60.44
2016-08-02T09:13:30.166Z,60.89
2016-08-02T09:14:33.990Z,61.50
2016-08-02T09:15:30.019Z,59.66
2016-08-02T09:23:32.986Z,61.93
2016-08-02T09:24:31.033Z,62.16
2016-08-02T09:25:40.368Z,62.05
2016-08-02T09:27:25.277Z,62.42
2016-08-02T09:28:32.771Z,62.52
2016-08-02T09:29:36.141Z,62.34
2016-08-02T09:32:29.397Z,60.83
2016-08-02T09:34:33.810Z,61.77
2016-08-02T09:35:32.679Z,62.17
2016-08-02T09:37:25.939Z,63.02
2016-08-02T09:38:31.342Z,61.40
2016-08-02T09:39:35.670Z,61.24
2016-08-02T09:40:33.493Z,61.01
2016-08-02T09:41:30.786Z,59.27
2016-08-02T09:42:25.578Z,60.13
2016-08-02T09:43:29.586Z,61.82
2016-08-02T09:44:29.467Z,60.16
2016-08-02T09:45:27.955Z,60.15
2016-08-02T09:46:42.765Z,61.42
2016-08-02T09:47:31.268Z,61.36
2016-08-02T09:48:24.285Z,61.94
2016-08-02T09:49:24.324Z,61.65
2016-08-02T09:50:34.031Z,60.76
2016-08-02T09:51:30.504Z,62.02
2016-08-02T09:52:32.294Z,62.49
2016-08-02T09:53:23.021Z,62.30
2016-08-02T09:54:30.938Z,60.39
2016-08-02T09:55:38.802Z,61.50
2016-08-02T09:56:41.545Z,61.04
2016-08-02T09:57:43.788Z,61.34
2016-08-02T09:58:33.323Z,60.85
2016-08-02T09:59:40.699Z,61.38
2016-08-02T10:00:45.005Z,60.95
2016-08-02T10:01:39.283Z,60.78
2016-08-02T10:02:33.282Z,59.90
2016-08-02T10:06:58.144Z,59.46
2016-08-02T10:07:27.615Z,61.34
2016-08-02T10:08:24.505Z,60.57
2016-08-02T10:09:24.996Z,60.48
2016-08-02T10:10:30.698Z,58.32
2016-08-02T10:11:39.692Z,59.83
2016-08-02T10:12:27.809Z,60.09
2016-08-02T10:14:20.225Z,59.75
2016-08-02T10:16:38.191Z,59.75
2016-08-02T10:17:29.584Z,59.71
2016-08-02T10:18:47.359Z,60.68
2016-08-02T10:19:34.359Z,58.73
2016-08-02T10:21:23.869Z,60.32
2016-08-02T10:22:30.487Z,59.94
2016-08-02T10:23:37.343Z,60.52
2016-08-02T10:24:25.590Z,60.72
2016-08-02T10:25:44.080Z,60.77
2016-08-02T10:26:35.486Z,60.47
2016-08-02T10:27:39.975Z,60.91
2016-08-02T10:28:31.602Z,61.41
2016-08-02T10:31:39.309Z,59.41
2016-08-02T10:32:36.303Z,60.70
2016-08-02T10:33:41.199Z,61.05
2016-08-02T10:34:33.986Z,60.31
2016-08-02T10:35:31.125Z,60.73
2016-08-02T10:36:34.279Z,60.97
2016-08-02T10:37:46.135Z,61.40
2016-08-02T10:39:23.209Z,59.22
2016-08-02T10:40:28.920Z,59.21
2016-08-02T10:41:25.631Z,59.76
2016-08-02T10:42:45.347Z,60.52
2016-08-02T10:44:25.990Z,59.63
2016-08-02T10:45:38.794Z,59.13
2016-08-02T10:46:28.167Z,59.18
2016-08-02T10:47:47.737Z,59.18
2016-08-02T10:48:35.465Z,59.58
2016-08-02T10:49:24.848Z,59.06
2016-08-02T10:50:27.502Z,57.01
2016-08-02T10:51:18.591Z,56.27
2016-08-02T10:52:48.080Z,56.25
2016-08-02T10:53:28.103Z,57.38
2016-08-02T10:54:33.356Z,58.45
2016-08-02T10:55:40.505Z,59.58
2016-08-02T10:56:34.016Z,57.28
2016-08-02T10:57:31.740Z,56.48
2016-08-02T10:58:47.105Z,57.21
2016-08-02T10:59:31.344Z,56.53
2016-08-02T11:00:31.405Z,56.67
2016-08-02T11:01:34.559Z,56.26
2016-08-02T11:02:27.280Z,55.84
2016-08-02T11:03:43.849Z,56.10
2016-08-02T11:04:29.027Z,56.40
2016-08-02T11:05:34.320Z,55.90
2016-08-02T11:06:41.652Z,56.70
2016-08-02T11:07:32.751Z,55.28
2016-08-02T11:08:29.623Z,56.30
2016-08-02T11:09:19.918Z,55.27
2016-08-02T11:10:40.994Z,55.69
2016-08-02T11:11:29.957Z,56.70
2016-08-02T11:12:19.859Z,59.10
2016-08-02T11:14:34.350Z,56.97
2016-08-02T11:15:57.038Z,56.60
2016-08-02T11:16:29.360Z,55.68
2016-08-02T11:18:33.586Z,54.57
2016-08-02T11:19:38.681Z,55.43
2016-08-02T11:20:26.544Z,54.42
2016-08-02T11:21:34.134Z,53.51
2016-08-02T11:22:33.307Z,53.33
2016-08-02T11:23:33.675Z,54.12
2016-08-02T11:24:31.296Z,53.44
2016-08-02T11:25:25.232Z,54.64
2016-08-02T11:26:32.414Z,53.89
2016-08-02T11:27:38.505Z,53.81
2016-08-02T11:28:38.642Z,54.17
2016-08-02T11:31:29.348Z,54.82
2016-08-02T11:32:31.714Z,54.66
2016-08-02T11:34:17.739Z,54.06
2016-08-02T11:35:24.236Z,55.05
2016-08-02T11:36:23.717Z,55.40
2016-08-02T11:37:24.563Z,54.79
2016-08-02T11:38:29.544Z,55.83
2016-08-02T11:40:23.422Z,53.28
2016-08-02T11:41:24.880Z,53.23
2016-08-02T11:42:39.596Z,52.59
2016-08-02T11:44:42.186Z,52.79
2016-08-02T11:47:29.419Z,51.95
2016-08-02T11:48:48.750Z,51.14
2016-08-02T11:49:38.622Z,52.07
2016-08-02T11:52:32.521Z,50.94
2016-08-02T11:53:48.090Z,51.55
2016-08-02T11:55:28.590Z,51.51
2016-08-02T11:56:33.759Z,50.49
2016-08-02T11:57:39.600Z,51.95
2016-08-02T11:58:41.622Z,52.79
2016-08-02T11:59:24.681Z,52.63
2016-08-02T12:00:25.823Z,52.18
2016-08-02T12:01:33.129Z,52.13
2016-08-02T12:02:20.884Z,51.03
2016-08-02T12:03:28.592Z,51.05
2016-08-02T12:04:29.681Z,52.34
2016-08-02T12:06:46.928Z,52.42
2016-08-02T12:07:19.445Z,52.93
2016-08-02T12:08:41.353Z,51.23
2016-08-02T12:09:23.471Z,52.29
2016-08-02T12:10:39.122Z,51.62
2016-08-02T12:11:34.281Z,51.77
2016-08-02T12:12:25.115Z,50.87
2016-08-02T12:14:31.852Z,50.88
2016-08-02T12:15:26.582Z,50.31
2016-08-02T12:16:32.859Z,51.03
2016-08-02T12:19:30.384Z,51.08
2016-08-02T12:20:24.944Z,50.40
2016-08-02T12:21:46.692Z,52.11
2016-08-02T12:22:31.037Z,51.44
2016-08-02T12:23:28.562Z,49.77
2016-08-02T12:24:30.480Z,52.02
2016-08-02T12:28:28.169Z,50.76
2016-08-02T12:29:36.548Z,51.23
2016-08-02T12:31:51.545Z,50.55
2016-08-02T12:34:30.397Z,53.17
2016-08-02T12:36:18.077Z,51.37
2016-08-02T12:38:48.415Z,51.99
2016-08-02T12:39:35.870Z,50.68
2016-08-02T12:40:28.843Z,50.35
2016-08-02T12:41:29.745Z,51.38
2016-08-02T12:42:25.490Z,53.08
2016-08-02T12:46:29.756Z,52.49
2016-08-02T12:47:41.097Z,52.07
2016-08-02T12:48:42.826Z,52.53
2016-08-02T12:49:40.975Z,52.70
2016-08-02T12:51:45.914Z,51.81
2016-08-02T12:52:27.214Z,52.81
2016-08-02T12:53:50.478Z,52.26
2016-08-02T12:54:46.135Z,52.18
2016-08-02T12:57:22.815Z,53.24
2016-08-02T12:58:32.324Z,53.11
2016-08-02T12:59:44.009Z,52.80
2016-08-02T13:01:18.944Z,53.52
2016-08-02T13:02:27.893Z,52.83
2016-08-02T13:03:27.054Z,51.93
2016-08-02T13:04:24.254Z,51.77
2016-08-02T13:08:42.384Z,53.50
2016-08-02T13:09:29.969Z,52.34
2016-08-02T13:12:23.443Z,52.79
2016-08-02T13:13:25.296Z,52.57
2016-08-02T13:16:31.200Z,53.23
2016-08-02T13:18:50.707Z,51.52
2016-08-02T13:19:37.137Z,53.19
2016-08-02T13:21:35.661Z,52.32
2016-08-02T13:23:36.893Z,52.73
2016-08-02T13:25:38.730Z,52.49
2016-08-02T13:26:51.920Z,53.32
2016-08-02T13:28:29.390Z,53.31
2016-08-02T13:29:34.607Z,53.33
2016-08-02T13:30:57.806Z,53.72
2016-08-02T13:31:38.460Z,53.78
2016-08-02T13:32:31.705Z,53.66
2016-08-02T13:35:31.211Z,54.08
2016-08-02T13:39:32.931Z,53.85
2016-08-02T13:40:36.829Z,53.75
2016-08-02T13:41:45.636Z,54.35
2016-08-02T13:42:30.810Z,54.01
2016-08-02T13:44:38.375Z,53.21
2016-08-02T13:46:28.630Z,53.99
2016-08-02T13:49:35.553Z,53.91
2016-08-02T13:53:41.440Z,53.44
2016-08-02T13:54:43.632Z,54.60
2016-08-02T13:57:39.434Z,54.59
2016-08-02T13:59:24.178Z,53.72
2016-08-02T14:00:29.003Z,52.76
2016-08-02T14:04:35.423Z,53.82
2016-08-02T14:07:41.405Z,53.68
2016-08-02T14:08:37.494Z,54.10
2016-08-02T14:18:27.209Z,54.19
2016-08-02T14:20:42.978Z,54.78
2016-08-02T14:22:30.601Z,55.45
2016-08-02T14:24:41.937Z,55.22
2016-08-02T14:25:34.635Z,55.56
2016-08-02T14:26:39.174Z,55.96
2016-08-02T14:27:36.945Z,55.07
2016-08-02T14:28:35.162Z,53.27
2016-08-02T14:31:35.426Z,54.63
2016-08-02T14:33:01.876Z,54.46
2016-08-02T14:38:41.602Z,53.04
2016-08-02T14:39:27.270Z,53.54
2016-08-02T14:40:30.771Z,53.69
2016-08-02T14:44:35.494Z,53.04
2016-08-02T14:47:36.915Z,53.25
2016-08-02T14:49:17.225Z,53.83
2016-08-02T14:51:30.136Z,54.01
2016-08-02T14:54:25.256Z,54.81
2016-08-02T14:55:20.445Z,54.83
2016-08-02T14:57:34.465Z,54.94
2016-08-02T15:00:27.335Z,53.99
2016-08-02T15:02:26.577Z,53.79
2016-08-02T15:03:30.242Z,52.46
2016-08-02T15:04:24.833Z,52.28
2016-08-02T15:05:34.008Z,51.71
2016-08-02T15:06:22.892Z,50.47
2016-08-02T15:07:30.111Z,50.91
2016-08-02T15:08:31.146Z,51.99
2016-08-02T15:09:26.544Z,51.71
2016-08-02T15:12:29.106Z,52.00
2016-08-02T15:13:30.133Z,52.72
2016-08-02T15:14:32.276Z,51.30
2016-08-02T15:15:24.179Z,51.94
2016-08-02T15:16:48.205Z,51.12
2016-08-02T15:17:27.352Z,51.86
2016-08-02T15:19:45.731Z,52.03
2016-08-02T15:20:40.941Z,52.62
2016-08-02T15:21:33.999Z,52.81
2016-08-02T15:22:18.695Z,53.01
2016-08-02T15:23:38.758Z,53.43
2016-08-02T15:24:24.195Z,53.10
2016-08-02T15:25:28.087Z,54.02
2016-08-02T15:28:33.454Z,54.15
2016-08-02T15:30:33.191Z,53.79
2016-08-02T15:31:35.070Z,53.10
2016-08-02T15:34:38.164Z,53.68
2016-08-02T15:35:30.938Z,53.86
2016-08-02T15:36:32.071Z,53.71
2016-08-02T15:37:34.119Z,53.76
2016-08-02T15:38:45.108Z,53.71
2016-08-02T15:40:34.433Z,55.61
2016-08-02T15:41:40.699Z,56.37
2016-08-02T15:42:33.776Z,55.89
2016-08-02T15:43:27.146Z,55.81
2016-08-02T15:45:30.345Z,54.45
2016-08-02T15:46:38.647Z,55.25
2016-08-02T15:47:24.939Z,54.79
2016-08-02T15:48:36.343Z,54.78
2016-08-02T15:49:24.827Z,54.87
2016-08-02T15:50:20.636Z,55.61
2016-08-02T15:52:32.581Z,56.95
2016-08-02T15:53:25.574Z,57.28
2016-08-02T15:54:28.454Z,58.55
2016-08-02T15:55:29.757Z,58.45
2016-08-02T15:58:32.742Z,58.82
2016-08-02T15:59:31.685Z,59.05
2016-08-02T16:00:34.003Z,59.26
2016-08-02T16:02:34.153Z,59.40
2016-08-02T16:02:46.584Z,58.95
2016-08-02T16:03:39.593Z,59.24
2016-08-02T16:05:39.319Z,58.73
2016-08-02T16:06:42.172Z,58.80
2016-08-02T16:07:30.884Z,59.09
2016-08-02T16:09:26.077Z,58.64
2016-08-02T16:10:11.064Z,58.72
2016-08-02T16:11:09.739Z,59.26
2016-08-02T16:12:18.809Z,58.75
2016-08-02T16:13:34.743Z,59.06
2016-08-02T16:14:38.740Z,58.90
2016-08-02T16:16:32.597Z,58.85
2016-08-02T16:18:24.216Z,58.94
2016-08-02T16:19:32.834Z,58.52
2016-08-02T16:20:42.229Z,58.44
2016-08-02T16:21:23.099Z,58.54
2016-08-02T16:22:24.900Z,58.61
2016-08-02T16:23:31.471Z,58.76
2016-08-02T16:24:50.232Z,58.73
2016-08-02T16:25:44.815Z,59.03
2016-08-02T16:27:24.023Z,58.54
2016-08-02T16:28:24.068Z,58.81
2016-08-02T16:29:26.965Z,58.91
2016-08-02T16:30:34.227Z,58.93
2016-08-02T16:31:33.699Z,58.84
2016-08-02T16:32:26.297Z,59.04
2016-08-02T16:33:15.072Z,59.16
2016-08-02T16:34:46.588Z,59.19
2016-08-02T16:35:29.133Z,59.15
2016-08-02T16:36:31.230Z,59.26
2016-08-02T16:37:34.588Z,59.55
2016-08-02T16:39:24.274Z,58.84
2016-08-02T16:42:25.727Z,59.40
2016-08-02T16:43:23.820Z,59.55
2016-08-02T16:44:28.892Z,59.05
2016-08-02T16:45:40.318Z,58.19
2016-08-02T16:46:35.073Z,58.70
2016-08-02T16:48:40.388Z,58.80
2016-08-02T16:49:32.473Z,58.84
2016-08-02T16:50:26.231Z,58.94
2016-08-02T16:51:36.074Z,59.15
2016-08-02T16:53:45.076Z,59.20
2016-08-02T16:54:37.747Z,59.43
2016-08-02T16:55:25.170Z,60.01
2016-08-02T16:57:33.652Z,59.04
2016-08-02T17:00:24.660Z,60.52
2016-08-02T17:01:27.383Z,61.41
2016-08-02T17:02:35.397Z,61.61
2016-08-02T17:04:29.639Z,62.75
2016-08-02T17:05:29.855Z,63.52
2016-08-02T17:06:39.316Z,63.33
2016-08-02T17:07:34.089Z,63.39
2016-08-02T17:08:36.670Z,63.38
2016-08-02T17:10:30.254Z,65.25
2016-08-02T17:12:38.930Z,65.04
2016-08-02T17:13:49.017Z,65.18
2016-08-02T17:14:34.669Z,64.46
2016-08-02T17:15:34.371Z,65.50
2016-08-02T17:16:29.130Z,65.71
2016-08-02T17:17:42.348Z,65.89
2016-08-02T17:18:46.821Z,65.19
2016-08-02T17:19:35.043Z,65.10
2016-08-02T17:20:30.093Z,65.38
2016-08-02T17:24:32.394Z,66.46
2016-08-02T17:25:24.377Z,67.16
2016-08-02T17:26:25.419Z,67.11
2016-08-02T17:27:44.358Z,66.63
2016-08-02T17:28:41.164Z,67.69
2016-08-02T17:29:34.539Z,67.78
2016-08-02T17:30:31.715Z,67.41
2016-08-02T17:31:25.466Z,67.92
2016-08-02T17:32:31.201Z,68.27
2016-08-02T17:33:30.268Z,68.45
2016-08-02T17:35:35.666Z,69.62
2016-08-02T17:38:24.702Z,70.79
2016-08-02T17:43:18.054Z,70.70
2016-08-02T17:44:23.852Z,70.93
2016-08-02T17:45:50.205Z,69.97
2016-08-02T17:46:30.936Z,71.11
2016-08-02T17:47:30.115Z,69.76
2016-08-02T17:51:34.149Z,70.78
2016-08-02T17:52:24.702Z,71.25
2016-08-02T17:53:35.498Z,70.45
2016-08-02T17:54:30.760Z,71.74
2016-08-02T17:55:32.841Z,71.23
2016-08-02T17:56:33.260Z,71.73
2016-08-02T17:57:25.584Z,72.11
2016-08-02T17:58:48.008Z,71.19
2016-08-02T17:59:35.620Z,72.32
2016-08-02T18:00:31.999Z,71.50
2016-08-02T18:01:25.115Z,72.27
2016-08-02T18:02:35.622Z,73.42
2016-08-02T18:03:21.507Z,72.19
2016-08-02T18:05:35.869Z,71.29
2016-08-02T18:06:29.729Z,71.61
2016-08-02T18:07:26.074Z,72.33
2016-08-02T18:08:29.396Z,72.11
2016-08-02T18:09:29.030Z,72.51
2016-08-02T18:10:23.683Z,72.42
2016-08-02T18:11:24.421Z,72.26
2016-08-02T18:12:30.188Z,71.63
2016-08-02T18:13:24.649Z,71.52
2016-08-02T18:14:24.321Z,71.43
2016-08-02T18:15:17.529Z,71.95
2016-08-02T18:17:31.433Z,72.18
2016-08-02T18:18:31.638Z,72.32
2016-08-02T18:19:35.995Z,72.32
2016-08-02T18:20:25.675Z,71.77
2016-08-02T18:21:30.176Z,71.53
2016-08-02T18:22:29.471Z,72.26
2016-08-02T18:23:46.069Z,72.56
2016-08-02T18:24:35.485Z,72.63
2016-08-02T18:25:27.508Z,72.15
2016-08-02T18:26:39.655Z,72.60
2016-08-02T18:27:41.062Z,72.81
2016-08-02T18:28:23.154Z,72.03
2016-08-02T18:29:23.051Z,72.54
2016-08-02T18:30:23.732Z,72.71
2016-08-02T18:31:39.074Z,72.58
2016-08-02T18:32:27.146Z,73.10
2016-08-02T18:33:28.719Z,73.26
2016-08-02T18:34:23.950Z,72.63
2016-08-02T18:35:42.550Z,72.37
2016-08-02T18:36:27.641Z,71.53
2016-08-02T18:37:39.500Z,72.04
2016-08-02T18:39:26.503Z,71.72
2016-08-02T18:40:39.306Z,71.64
2016-08-02T18:41:37.014Z,72.36
2016-08-02T18:43:31.648Z,72.38
2016-08-02T18:44:43.130Z,73.31
2016-08-02T18:45:25.069Z,73.33
2016-08-02T18:47:23.434Z,72.90
2016-08-02T18:48:26.939Z,73.04
2016-08-02T18:49:29.517Z,73.15
2016-08-02T18:50:41.309Z,73.67
2016-08-02T18:52:46.802Z,74.62
2016-08-02T18:53:42.391Z,74.37
2016-08-02T18:56:49.723Z,74.29
2016-08-02T18:57:38.071Z,73.81
2016-08-02T18:58:28.388Z,73.85
2016-08-02T19:01:35.039Z,73.54
2016-08-02T19:02:31.101Z,74.04
2016-08-02T19:09:34.760Z,74.61
2016-08-02T19:10:23.799Z,74.40
2016-08-02T19:12:45.387Z,75.78
2016-08-02T19:13:45.455Z,75.60
2016-08-02T19:15:33.403Z,75.77
2016-08-02T19:16:51.102Z,76.89
2016-08-02T19:17:25.673Z,77.35
2016-08-02T19:18:30.273Z,77.62
2016-08-02T19:19:30.748Z,77.39
2016-08-02T19:20:29.499Z,77.91
2016-08-02T19:21:35.250Z,78.38
2016-08-02T19:22:25.411Z,79.65
2016-08-02T19:23:40.994Z,80.55
2016-08-02T19:24:29.054Z,79.20
2016-08-02T19:25:28.990Z,80.54